Time;durP1;ratioP1;P1;durP2;ratioP2;P2;SDS_P1;SDS_P2;PMS_P1;PMS_P2;Temp;Humidity;BMP_temperature;BMP_pressure;BME280_temperature;BME280_humidity;BME280_pressure;Samples;Min_cycle;Max_cycle;Signal;HPM_P1;HPM_P2
2022/01/09 00:01:54;;;;;;;7.32;5.07;;;4.80;99.90;;;;;;4968943;28;20042;-84
2022/01/09 00:04:20;;;;;;;4.53;3.22;;;4.80;99.90;;;;;;4985124;28;20100;-77
2022/01/09 00:06:49;;;;;;;7.88;5.80;;;4.80;99.90;;;;;;4985247;28;20134;-84
2022/01/09 00:09:16;;;;;;;9.00;6.60;;;4.80;99.90;;;;;;4953335;28;20035;-82
2022/01/09 00:11:42;;;;;;;7.80;5.72;;;4.80;99.90;;;;;;4969004;28;20043;-82
2022/01/09 00:14:08;;;;;;;10.32;6.38;;;4.90;99.90;;;;;;4952821;28;20097;-83
2022/01/09 00:16:33;;;;;;;10.25;7.53;;;4.90;99.90;;;;;;4969263;28;20099;-82
2022/01/09 00:18:59;;;;;;;9.15;7.45;;;4.90;99.90;;;;;;5001414;28;20415;-81
2022/01/09 00:21:25;;;;;;;11.95;7.97;;;4.90;99.90;;;;;;4952769;28;20160;-81
2022/01/09 00:23:51;;;;;;;12.18;8.60;;;4.90;99.90;;;;;;4952920;28;20050;-80
2022/01/09 00:26:17;;;;;;;13.77;9.35;;;4.90;99.90;;;;;;4982633;28;20050;-80
2022/01/09 00:28:43;;;;;;;13.00;9.05;;;4.90;99.90;;;;;;4968936;28;20177;-80
2022/01/09 00:31:08;;;;;;;13.40;9.70;;;4.90;99.90;;;;;;4969113;28;20043;-80
2022/01/09 00:33:34;;;;;;;14.23;9.40;;;4.90;99.90;;;;;;4952409;28;20560;-80
2022/01/09 00:36:00;;;;;;;13.63;8.85;;;4.90;99.90;;;;;;4968624;28;20053;-80
2022/01/09 00:38:26;;;;;;;14.13;9.75;;;5.00;99.90;;;;;;4968899;28;20097;-80
2022/01/09 00:40:52;;;;;;;15.82;9.63;;;5.00;99.90;;;;;;4968589;28;20503;-79
2022/01/09 00:43:18;;;;;;;16.65;10.38;;;5.00;99.90;;;;;;4968793;28;20134;-79
2022/01/09 00:45:43;;;;;;;14.30;9.57;;;5.00;99.90;;;;;;4968554;28;20516;-79
2022/01/09 00:48:10;;;;;;;16.30;10.65;;;5.10;99.90;;;;;;4968688;28;20050;-80
2022/01/09 00:50:38;;;;;;;12.38;8.30;;;5.10;99.90;;;;;;4968513;28;20074;-80
2022/01/09 00:53:04;;;;;;;16.95;10.30;;;5.10;99.90;;;;;;4968387;28;20552;-80
2022/01/09 00:55:30;;;;;;;15.43;9.88;;;5.10;99.90;;;;;;4950438;28;20391;-79
2022/01/09 00:57:56;;;;;;;18.23;10.95;;;5.20;99.90;;;;;;4968709;28;20051;-80
2022/01/09 01:00:22;;;;;;;17.90;10.00;;;5.20;99.90;;;;;;4952468;28;20126;-79
2022/01/09 01:02:48;;;;;;;15.02;9.30;;;5.20;99.90;;;;;;4968271;28;20062;-79
2022/01/09 01:05:14;;;;;;;13.82;7.47;;;5.30;99.90;;;;;;4968266;28;20050;-78
2022/01/09 01:07:41;;;;;;;13.95;7.40;;;5.40;99.90;;;;;;4970408;28;20101;-79
2022/01/09 01:10:07;;;;;;;14.25;6.90;;;5.40;99.90;;;;;;4971521;28;20122;-79
2022/01/09 01:12:33;;;;;;;16.42;6.97;;;5.50;99.90;;;;;;4955981;28;20035;-79
2022/01/09 01:14:59;;;;;;;10.30;5.53;;;5.60;99.90;;;;;;4955709;28;20471;-79
2022/01/09 01:17:25;;;;;;;11.73;6.00;;;5.60;99.90;;;;;;4971696;28;20039;-79
2022/01/09 01:19:53;;;;;;;11.10;4.70;;;5.60;99.90;;;;;;4971301;28;20043;-78
2022/01/09 01:22:20;;;;;;;11.55;4.90;;;5.70;99.90;;;;;;4971307;28;20061;-78
2022/01/09 01:24:46;;;;;;;14.80;5.60;;;5.70;99.90;;;;;;4971331;28;20061;-78
2022/01/09 01:27:13;;;;;;;14.98;5.25;;;5.80;99.90;;;;;;4968939;28;20074;-78
2022/01/09 01:29:40;;;;;;;11.68;4.45;;;5.80;99.90;;;;;;4971270;28;20050;-78
2022/01/09 01:32:06;;;;;;;12.50;4.30;;;5.80;99.90;;;;;;4955021;28;20104;-78
2022/01/09 01:34:35;;;;;;;13.18;4.72;;;5.80;99.90;;;;;;4984482;28;20047;-78
2022/01/09 01:37:01;;;;;;;13.75;5.05;;;5.80;99.90;;;;;;4971313;28;20134;-78
2022/01/09 01:39:26;;;;;;;10.55;3.78;;;5.80;99.90;;;;;;4987300;28;20125;-78
2022/01/09 01:41:52;;;;;;;11.40;3.97;;;5.80;99.90;;;;;;4971096;28;20051;-78
2022/01/09 01:44:18;;;;;;;11.52;4.10;;;5.80;99.90;;;;;;4955354;28;20038;-78
2022/01/09 01:46:44;;;;;;;10.32;3.78;;;5.80;99.90;;;;;;4987437;28;20495;-78
2022/01/09 01:49:11;;;;;;;16.33;4.22;;;5.90;99.90;;;;;;4970970;28;20507;-78
2022/01/09 01:51:44;;;;;;;12.57;3.90;;;5.90;99.90;;;;;;4971338;28;20053;-78
2022/01/09 01:54:14;;;;;;;13.20;3.33;;;5.90;99.90;;;;;;4954801;28;20050;-78
2022/01/09 01:56:40;;;;;;;11.02;3.83;;;5.90;99.90;;;;;;4968616;28;20050;-78
2022/01/09 01:59:06;;;;;;;15.23;4.03;;;5.90;99.90;;;;;;4971000;28;20047;-79
2022/01/09 02:01:36;;;;;;;18.23;4.03;;;5.90;99.90;;;;;;4970819;28;20043;-78
2022/01/09 02:04:02;;;;;;;20.55;4.20;;;5.90;99.90;;;;;;4970688;28;20043;-78
2022/01/09 02:06:28;;;;;;;13.90;4.38;;;6.00;99.90;;;;;;4971177;28;20043;-78
2022/01/09 02:08:54;;;;;;;21.52;5.03;;;6.00;99.90;;;;;;5003469;28;20392;-78
2022/01/09 02:11:20;;;;;;;21.73;4.50;;;6.00;99.90;;;;;;4970687;28;20410;-78
2022/01/09 02:13:46;;;;;;;25.65;5.10;;;6.00;99.90;;;;;;4954493;28;20126;-78
2022/01/09 02:16:17;;;;;;;18.92;4.70;;;6.00;99.90;;;;;;4970624;28;20100;-78
2022/01/09 02:18:47;;;;;;;28.48;5.18;;;6.00;99.90;;;;;;4969468;28;20117;-78
2022/01/09 02:21:14;;;;;;;29.40;6.63;;;6.00;99.90;;;;;;4976474;28;20053;-78
2022/01/09 02:23:45;;;;;;;19.48;4.93;;;6.10;99.90;;;;;;5009465;28;20042;-78
2022/01/09 02:26:18;;;;;;;18.05;4.18;;;6.10;99.90;;;;;;4990686;28;20042;-79
2022/01/09 02:28:45;;;;;;;24.25;5.65;;;6.10;99.90;;;;;;5009780;28;20046;-79
2022/01/09 02:31:11;;;;;;;35.20;6.85;;;6.10;99.90;;;;;;4993031;28;20074;-79
2022/01/09 02:33:37;;;;;;;33.67;6.68;;;6.10;99.90;;;;;;4967500;28;20077;-79
2022/01/09 02:36:03;;;;;;;32.55;6.03;;;6.20;99.90;;;;;;4989844;28;20050;-79
2022/01/09 02:38:28;;;;;;;35.17;5.97;;;6.20;99.90;;;;;;4973813;28;20038;-79
2022/01/09 02:40:54;;;;;;;39.55;7.25;;;6.20;99.90;;;;;;5005752;28;20509;-80
2022/01/09 02:43:21;;;;;;;42.78;6.53;;;6.20;99.90;;;;;;4989579;28;20057;-80
2022/01/09 02:45:54;;;;;;;41.67;7.28;;;6.20;99.90;;;;;;5005780;28;20095;-81
2022/01/09 02:48:20;;;;;;;42.60;7.18;;;6.20;99.90;;;;;;4973605;28;20043;-79
2022/01/09 02:51:03;;;;;;;38.83;7.78;;;6.20;99.90;;;;;;5006102;28;20414;-80
2022/01/09 02:53:33;;;;;;;60.17;7.38;;;6.20;99.90;;;;;;4989719;28;20104;-80
2022/01/09 02:56:00;;;;;;;35.67;6.32;;;6.20;99.90;;;;;;5003357;28;20049;-81
2022/01/09 02:58:26;;;;;;;53.38;7.65;;;6.20;99.90;;;;;;4973215;28;20061;-80
2022/01/09 03:00:52;;;;;;;33.45;6.68;;;6.20;99.90;;;;;;5005693;28;20046;-80
2022/01/09 03:03:18;;;;;;;40.33;7.68;;;6.10;99.90;;;;;;4973421;28;20555;-80
2022/01/09 03:05:44;;;;;;;32.00;5.50;;;6.10;99.90;;;;;;4972979;28;20587;-77
2022/01/09 03:08:09;;;;;;;51.75;6.60;;;6.20;99.90;;;;;;5005413;28;20042;-78
2022/01/09 03:10:35;;;;;;;38.40;5.85;;;6.20;99.90;;;;;;4972981;28;20099;-77
2022/01/09 03:13:03;;;;;;;39.22;6.55;;;6.20;99.90;;;;;;4973331;28;20077;-76
2022/01/09 03:15:29;;;;;;;47.70;8.48;;;6.20;99.90;;;;;;5005360;28;20045;-77
2022/01/09 03:17:55;;;;;;;36.05;6.07;;;6.20;99.90;;;;;;4989395;28;20103;-76
2022/01/09 03:20:23;;;;;;;30.02;5.70;;;6.10;99.90;;;;;;4989087;28;20042;-77
2022/01/09 03:22:50;;;;;;;43.33;6.43;;;6.10;99.90;;;;;;4988839;28;20069;-76
2022/01/09 03:25:16;;;;;;;25.27;5.40;;;6.10;99.90;;;;;;5002853;28;20053;-76
2022/01/09 03:27:49;;;;;;;28.30;5.25;;;6.10;99.90;;;;;;4973065;28;20038;-76
2022/01/09 03:30:14;;;;;;;26.27;5.50;;;6.10;99.90;;;;;;5005056;28;20071;-77
2022/01/09 03:32:42;;;;;;;20.98;5.07;;;6.10;99.90;;;;;;4958161;28;20046;-76
2022/01/09 03:35:11;;;;;;;24.85;4.30;;;6.10;99.90;;;;;;4992311;28;20106;-76
2022/01/09 03:37:37;;;;;;;36.08;7.65;;;6.10;99.90;;;;;;4976266;28;20359;-75
2022/01/09 03:40:09;;;;;;;30.48;4.93;;;6.10;99.90;;;;;;4991984;28;20046;-75
2022/01/09 03:42:35;;;;;;;30.90;7.25;;;6.10;99.90;;;;;;5024766;28;20046;-76
2022/01/09 03:45:02;;;;;;;27.73;4.93;;;6.20;99.90;;;;;;4975907;28;20052;-75
2022/01/09 03:47:28;;;;;;;23.85;4.57;;;6.10;99.90;;;;;;5008425;28;20042;-75
2022/01/09 03:49:54;;;;;;;29.55;5.38;;;6.20;99.90;;;;;;4991766;28;20094;-75
2022/01/09 03:52:19;;;;;;;29.27;6.55;;;6.20;99.90;;;;;;4991808;28;20080;-75
2022/01/09 03:54:45;;;;;;;22.35;5.13;;;6.10;99.90;;;;;;5008446;28;20045;-75
2022/01/09 03:57:11;;;;;;;19.90;4.70;;;6.10;99.90;;;;;;4989351;28;20458;-76
2022/01/09 03:59:37;;;;;;;29.85;4.78;;;6.10;99.90;;;;;;5008156;28;20049;-75
2022/01/09 04:02:03;;;;;;;23.83;4.20;;;6.10;99.90;;;;;;5007903;28;20103;-76
2022/01/09 04:04:29;;;;;;;24.50;4.57;;;6.10;99.90;;;;;;5008170;28;20124;-75
2022/01/09 04:06:55;;;;;;;24.10;4.10;;;6.10;99.90;;;;;;4991804;28;20149;-75
2022/01/09 04:09:28;;;;;;;24.33;4.80;;;6.10;99.90;;;;;;5024381;28;20117;-75
2022/01/09 04:12:03;;;;;;;16.20;4.45;;;6.10;99.90;;;;;;4991750;28;20046;-76
2022/01/09 04:14:30;;;;;;;25.73;5.43;;;6.10;99.90;;;;;;5008143;28;20099;-75
2022/01/09 04:16:56;;;;;;;26.95;4.78;;;6.10;99.90;;;;;;4975250;28;20603;-75
2022/01/09 04:19:22;;;;;;;22.85;4.28;;;6.00;99.90;;;;;;5024733;28;20053;-75
2022/01/09 04:21:48;;;;;;;19.73;4.32;;;6.00;99.90;;;;;;4991109;28;20482;-75
2022/01/09 04:24:13;;;;;;;21.58;3.35;;;6.00;99.90;;;;;;5008113;28;20038;-76
2022/01/09 04:26:40;;;;;;;19.95;3.70;;;6.00;99.90;;;;;;5021950;28;20447;-76
2022/01/09 04:29:06;;;;;;;21.95;3.47;;;6.00;99.90;;;;;;5007716;28;20497;-76
2022/01/09 04:31:32;;;;;;;17.73;2.70;;;6.00;99.90;;;;;;5007808;28;20046;-75
2022/01/09 04:33:58;;;;;;;19.30;3.05;;;6.00;99.90;;;;;;4991233;28;20073;-76
2022/01/09 04:36:24;;;;;;;20.85;4.07;;;5.90;99.90;;;;;;4991498;28;20052;-77
2022/01/09 04:38:50;;;;;;;18.45;3.05;;;6.00;99.90;;;;;;4991607;28;20042;-76
2022/01/09 04:41:16;;;;;;;13.00;2.95;;;5.90;99.90;;;;;;4975017;28;20042;-75
2022/01/09 04:43:44;;;;;;;14.43;2.40;;;5.90;99.90;;;;;;4994927;28;20091;-77
2022/01/09 04:46:10;;;;;;;18.02;2.88;;;5.90;99.90;;;;;;4994518;28;20107;-77
2022/01/09 04:48:36;;;;;;;16.23;3.58;;;5.90;99.90;;;;;;4994551;28;20054;-76
2022/01/09 04:51:04;;;;;;;25.42;3.65;;;5.90;99.90;;;;;;4994470;28;20050;-77
2022/01/09 04:53:30;;;;;;;16.38;2.83;;;5.90;99.90;;;;;;4994850;28;20042;-76
2022/01/09 04:55:56;;;;;;;20.15;2.67;;;5.90;99.90;;;;;;4976120;28;20080;-77
2022/01/09 04:58:22;;;;;;;22.60;3.35;;;6.00;99.90;;;;;;4994419;28;20440;-77
2022/01/09 05:00:47;;;;;;;22.25;3.65;;;6.00;99.90;;;;;;4994184;28;20042;-76
2022/01/09 05:03:15;;;;;;;25.13;6.20;;;6.00;99.90;;;;;;4978217;28;20042;-76
2022/01/09 05:05:41;;;;;;;18.40;3.95;;;6.00;99.90;;;;;;4994301;28;20489;-76
2022/01/09 05:08:07;;;;;;;17.90;3.15;;;6.00;99.90;;;;;;4978306;28;20054;-76
2022/01/09 05:10:32;;;;;;;17.42;4.00;;;6.00;99.90;;;;;;4978272;28;20049;-76
2022/01/09 05:12:58;;;;;;;25.58;3.75;;;5.90;99.90;;;;;;4977949;28;20125;-76
2022/01/09 05:15:24;;;;;;;26.45;5.60;;;5.90;99.90;;;;;;4977815;28;20042;-76
2022/01/09 05:17:53;;;;;;;20.20;4.07;;;5.90;99.90;;;;;;4978073;28;20041;-76
2022/01/09 05:20:19;;;;;;;28.85;5.57;;;5.90;99.90;;;;;;4994303;28;20668;-77
2022/01/09 05:22:45;;;;;;;23.13;4.40;;;5.90;99.90;;;;;;4993908;28;20163;-76
2022/01/09 05:25:11;;;;;;;30.67;4.28;;;5.90;99.90;;;;;;4992727;28;20042;-77
2022/01/09 05:27:37;;;;;;;28.52;5.43;;;5.90;99.90;;;;;;4993631;28;20038;-77
2022/01/09 05:30:05;;;;;;;36.58;7.30;;;5.80;99.90;;;;;;4977752;28;20042;-76
2022/01/09 05:32:31;;;;;;;19.17;4.53;;;5.80;99.90;;;;;;4977621;28;20045;-78
2022/01/09 05:34:56;;;;;;;21.55;3.58;;;5.80;99.90;;;;;;4994116;28;20042;-77
2022/01/09 05:37:22;;;;;;;21.42;3.83;;;5.80;99.90;;;;;;4994143;28;20646;-76
2022/01/09 05:39:48;;;;;;;21.40;2.97;;;5.80;99.90;;;;;;5026639;28;20045;-78
2022/01/09 05:42:14;;;;;;;23.75;5.20;;;5.80;99.90;;;;;;5010046;28;20091;-77
2022/01/09 05:44:40;;;;;;;22.92;4.38;;;5.80;99.90;;;;;;4993815;28;20049;-78
2022/01/09 05:47:06;;;;;;;24.25;3.25;;;5.70;99.90;;;;;;5026451;28;20050;-77
2022/01/09 05:49:32;;;;;;;21.45;3.42;;;5.70;99.90;;;;;;5010284;28;20033;-77
2022/01/09 05:51:58;;;;;;;15.35;3.05;;;5.70;99.90;;;;;;4993616;28;20044;-77
2022/01/09 05:54:24;;;;;;;14.30;3.30;;;5.70;99.90;;;;;;4993509;28;20053;-77
2022/01/09 05:56:53;;;;;;;21.45;4.57;;;5.70;99.90;;;;;;5007541;28;20042;-77
2022/01/09 05:59:19;;;;;;;20.23;4.32;;;5.60;99.90;;;;;;5026257;28;20053;-77
2022/01/09 06:01:46;;;;;;;16.45;3.33;;;5.60;99.90;;;;;;5026232;28;20096;-77
2022/01/09 06:04:12;;;;;;;15.02;3.00;;;5.60;99.90;;;;;;5010158;28;20034;-77
2022/01/09 06:06:37;;;;;;;21.88;2.95;;;5.50;99.90;;;;;;4993557;28;20512;-78
2022/01/09 06:09:04;;;;;;;15.13;3.63;;;5.50;99.90;;;;;;5009737;28;20110;-78
2022/01/09 06:11:30;;;;;;;8.65;2.95;;;5.50;99.90;;;;;;4977463;28;20401;-79
2022/01/09 06:13:56;;;;;;;14.73;3.08;;;5.50;99.90;;;;;;5009878;28;20045;-79
2022/01/09 06:16:23;;;;;;;20.50;3.33;;;5.50;99.90;;;;;;4993272;28;20386;-79
2022/01/09 06:18:49;;;;;;;16.70;4.03;;;5.50;99.90;;;;;;5009501;28;20038;-80
2022/01/09 06:21:14;;;;;;;18.55;3.95;;;5.50;99.90;;;;;;4992945;28;20054;-80
2022/01/09 06:23:40;;;;;;;14.88;2.83;;;5.50;99.90;;;;;;5009594;28;20038;-80
2022/01/09 06:26:06;;;;;;;13.13;3.05;;;5.50;99.90;;;;;;5007436;28;20099;-80
2022/01/09 06:28:32;;;;;;;10.82;2.00;;;5.50;99.90;;;;;;5009382;28;20125;-80
2022/01/09 06:30:58;;;;;;;13.27;2.60;;;5.40;99.90;;;;;;4993066;28;20128;-80
2022/01/09 06:33:24;;;;;;;10.80;2.03;;;5.40;99.90;;;;;;5001924;28;20034;-80
2022/01/09 06:35:49;;;;;;;10.68;1.75;;;5.40;99.90;;;;;;4973481;28;20050;-78
2022/01/09 06:38:15;;;;;;;13.32;1.90;;;5.40;99.90;;;;;;4989804;28;20050;-77
2022/01/09 06:40:41;;;;;;;9.52;1.52;;;5.40;99.90;;;;;;4973593;28;20042;-79
2022/01/09 06:43:07;;;;;;;11.38;1.85;;;5.40;99.90;;;;;;4989556;28;20125;-81
2022/01/09 06:45:33;;;;;;;11.13;1.50;;;5.30;99.90;;;;;;5006268;28;20035;-82
2022/01/09 06:47:59;;;;;;;8.48;2.03;;;5.30;99.90;;;;;;5005989;28;20048;-82
2022/01/09 06:50:26;;;;;;;11.05;1.33;;;5.30;99.90;;;;;;4989851;28;20444;-83
2022/01/09 06:52:52;;;;;;;10.27;1.70;;;5.30;99.90;;;;;;4989793;28;20401;-79
2022/01/09 06:55:18;;;;;;;7.13;1.52;;;5.30;99.90;;;;;;4987098;28;20039;-80
2022/01/09 06:57:44;;;;;;;12.75;1.77;;;5.30;99.90;;;;;;4957139;28;20042;-80
2022/01/09 07:00:12;;;;;;;11.45;1.77;;;5.30;99.90;;;;;;4989625;28;20133;-80
2022/01/09 07:02:38;;;;;;;7.75;1.50;;;5.20;99.90;;;;;;5005625;28;20050;-79
2022/01/09 07:05:04;;;;;;;12.30;2.60;;;5.20;99.90;;;;;;4988897;28;20038;-78
2022/01/09 07:07:30;;;;;;;12.32;2.88;;;5.30;99.90;;;;;;4989487;28;20402;-76
2022/01/09 07:09:56;;;;;;;10.13;2.20;;;5.30;99.90;;;;;;4973242;28;20050;-78
2022/01/09 07:12:22;;;;;;;12.60;3.33;;;5.30;99.90;;;;;;4989443;28;20046;-79
2022/01/09 07:14:48;;;;;;;8.75;2.42;;;5.30;99.90;;;;;;5005788;28;20472;-79
2022/01/09 07:17:14;;;;;;;12.07;2.15;;;5.40;99.90;;;;;;4973217;28;20502;-79
2022/01/09 07:19:40;;;;;;;15.52;2.50;;;5.40;99.90;;;;;;4956821;28;20065;-80
2022/01/09 07:22:06;;;;;;;10.10;1.70;;;5.40;99.90;;;;;;4988831;28;20054;-79
2022/01/09 07:24:35;;;;;;;11.88;1.75;;;5.40;99.90;;;;;;5005284;28;20043;-78
2022/01/09 07:27:01;;;;;;;10.95;1.75;;;5.30;99.90;;;;;;4954683;28;20457;-80
2022/01/09 07:29:27;;;;;;;12.23;2.05;;;5.30;99.90;;;;;;4972702;28;20128;-79
2022/01/09 07:31:53;;;;;;;9.85;1.63;;;5.20;99.90;;;;;;4988950;28;20490;-80
2022/01/09 07:34:19;;;;;;;11.80;2.10;;;5.20;99.90;;;;;;5003475;28;20049;-80
2022/01/09 07:36:45;;;;;;;13.68;2.75;;;5.20;99.90;;;;;;5008599;28;20038;-79
2022/01/09 07:39:11;;;;;;;9.98;1.92;;;5.20;99.90;;;;;;5008378;28;20498;-79
2022/01/09 07:41:38;;;;;;;12.27;2.10;;;5.20;99.90;;;;;;5008333;28;20045;-80
2022/01/09 07:44:04;;;;;;;9.35;2.08;;;5.20;99.90;;;;;;5008558;28;20452;-80
2022/01/09 07:46:30;;;;;;;6.28;1.70;;;5.20;99.90;;;;;;5008459;28;20073;-76
2022/01/09 07:48:56;;;;;;;8.52;2.15;;;5.20;99.90;;;;;;5008168;28;20080;-78
2022/01/09 07:51:22;;;;;;;8.35;1.75;;;5.20;99.90;;;;;;5000383;28;20053;-78
2022/01/09 07:53:48;;;;;;;8.55;1.50;;;5.20;99.90;;;;;;4981732;28;20049;-77
2022/01/09 07:56:13;;;;;;;8.45;1.50;;;5.20;99.90;;;;;;5027861;28;20046;-77
2022/01/09 07:58:40;;;;;;;11.77;2.00;;;5.20;99.90;;;;;;5077389;28;20077;-76
2022/01/09 08:01:06;;;;;;;8.60;1.77;;;5.20;99.90;;;;;;5093977;28;20077;-76
2022/01/09 08:03:32;;;;;;;10.27;3.65;;;5.20;99.90;;;;;;5077153;28;20039;-76
2022/01/09 08:05:58;;;;;;;8.23;1.88;;;5.20;99.90;;;;;;5093955;28;20043;-78
2022/01/09 08:08:23;;;;;;;9.48;1.80;;;5.30;99.90;;;;;;5038657;28;20037;-76
2022/01/09 08:10:49;;;;;;;13.57;2.55;;;5.30;99.90;;;;;;4975369;28;20050;-77
2022/01/09 08:13:15;;;;;;;9.45;1.88;;;5.30;99.90;;;;;;4991589;28;20050;-77
2022/01/09 08:15:41;;;;;;;9.02;2.22;;;5.30;99.90;;;;;;4975240;28;20122;-76
2022/01/09 08:18:07;;;;;;;12.75;2.75;;;5.30;99.90;;;;;;4994177;28;20053;-76
2022/01/09 08:20:33;;;;;;;14.13;3.20;;;5.30;99.90;;;;;;4995302;28;20038;-76
2022/01/09 08:22:59;;;;;;;10.35;2.10;;;5.20;99.90;;;;;;4978598;28;20049;-77
2022/01/09 08:25:25;;;;;;;11.43;2.05;;;5.20;99.90;;;;;;4992526;28;20084;-76
2022/01/09 08:27:51;;;;;;;10.07;2.70;;;5.20;99.90;;;;;;4995181;28;20076;-77
2022/01/09 08:30:21;;;;;;;10.00;2.53;;;5.20;99.90;;;;;;4994800;28;20046;-77
2022/01/09 08:32:47;;;;;;;16.92;2.67;;;5.20;99.90;;;;;;4994821;28;20052;-77
2022/01/09 08:35:15;;;;;;;12.10;3.30;;;5.20;99.90;;;;;;4994839;28;20524;-77
2022/01/09 08:37:41;;;;;;;13.38;3.83;;;5.10;99.90;;;;;;4994710;28;20087;-77
2022/01/09 08:40:11;;;;;;;13.25;3.22;;;5.10;99.90;;;;;;4994863;28;20409;-77
2022/01/09 08:42:37;;;;;;;13.23;2.67;;;5.10;99.90;;;;;;4995123;28;20447;-77
2022/01/09 08:45:04;;;;;;;9.18;1.80;;;5.10;99.90;;;;;;4995161;28;20034;-76
2022/01/09 08:47:30;;;;;;;7.40;1.75;;;5.20;99.90;;;;;;5011156;28;20042;-77
2022/01/09 08:49:56;;;;;;;10.75;2.47;;;5.20;99.90;;;;;;5011161;28;20404;-77
2022/01/09 08:52:21;;;;;;;9.30;1.90;;;5.20;99.90;;;;;;5011231;28;20399;-76
2022/01/09 08:54:50;;;;;;;7.22;1.55;;;5.20;99.90;;;;;;4994739;28;20375;-76
2022/01/09 08:57:16;;;;;;;10.45;1.70;;;5.30;99.90;;;;;;4992368;28;20126;-76
2022/01/09 08:59:42;;;;;;;7.88;1.60;;;5.30;99.90;;;;;;5011038;28;20482;-76
2022/01/09 09:02:08;;;;;;;9.25;1.38;;;5.40;99.90;;;;;;5010750;28;20128;-76
2022/01/09 09:04:34;;;;;;;10.30;1.80;;;5.40;99.90;;;;;;5010640;28;20117;-75
2022/01/09 09:07:00;;;;;;;9.68;1.67;;;5.50;99.90;;;;;;4978062;28;20130;-76
2022/01/09 09:09:25;;;;;;;9.82;1.70;;;5.50;99.90;;;;;;4994315;28;20049;-76
2022/01/09 09:11:51;;;;;;;8.63;2.20;;;5.50;99.90;;;;;;5010642;28;20042;-76
2022/01/09 09:14:17;;;;;;;6.30;1.27;;;5.60;99.90;;;;;;4993546;28;20094;-75
2022/01/09 09:16:43;;;;;;;10.00;1.98;;;5.60;99.90;;;;;;4978280;28;20395;-76
2022/01/09 09:19:09;;;;;;;10.43;2.30;;;5.60;99.90;;;;;;4994177;28;20048;-75
2022/01/09 09:21:35;;;;;;;6.68;1.48;;;5.60;99.90;;;;;;4990656;28;20058;-75
2022/01/09 09:24:01;;;;;;;9.23;1.88;;;5.60;99.90;;;;;;4990999;28;20038;-76
2022/01/09 09:26:27;;;;;;;11.57;2.10;;;5.60;99.90;;;;;;4972317;28;20414;-75
2022/01/09 09:28:53;;;;;;;8.20;1.50;;;5.60;99.90;;;;;;4990188;28;20046;-76
2022/01/09 09:31:19;;;;;;;9.60;2.38;;;5.60;99.90;;;;;;4974575;28;20053;-76
2022/01/09 09:33:45;;;;;;;8.85;1.48;;;5.60;99.90;;;;;;4980870;28;20050;-75
2022/01/09 09:36:11;;;;;;;14.60;2.40;;;5.70;99.90;;;;;;4987294;28;20491;-76
2022/01/09 09:38:37;;;;;;;6.85;2.13;;;5.70;99.90;;;;;;4955176;28;20513;-76
2022/01/09 09:41:03;;;;;;;9.35;2.47;;;5.70;99.90;;;;;;4954963;28;20130;-75
2022/01/09 09:43:29;;;;;;;8.73;1.65;;;5.70;99.90;;;;;;5003713;28;20125;-75
2022/01/09 09:45:55;;;;;;;7.40;1.48;;;5.70;99.90;;;;;;4955235;28;20057;-76
2022/01/09 09:48:22;;;;;;;5.55;1.05;;;5.60;99.90;;;;;;5003576;28;20380;-75
2022/01/09 09:50:48;;;;;;;8.02;0.82;;;5.50;99.90;;;;;;4955080;28;20065;-76
2022/01/09 09:53:14;;;;;;;5.38;0.98;;;5.50;99.90;;;;;;4955177;28;20039;-76
2022/01/09 09:55:44;;;;;;;6.70;1.10;;;5.40;99.90;;;;;;4968868;28;20047;-76
2022/01/09 09:58:11;;;;;;;4.95;1.00;;;5.40;99.90;;;;;;5003497;28;20047;-76
2022/01/09 10:00:37;;;;;;;4.35;1.20;;;5.40;99.90;;;;;;5003221;28;20084;-76
2022/01/09 10:03:03;;;;;;;4.50;0.88;;;5.40;99.90;;;;;;4955087;28;20034;-76
2022/01/09 10:05:37;;;;;;;2.88;0.90;;;5.40;99.90;;;;;;4954655;28;20042;-76
2022/01/09 10:08:21;;;;;;;6.40;2.63;;;5.50;99.90;;;;;;4970833;28;20042;-76
2022/01/09 10:10:47;;;;;;;5.40;2.42;;;5.50;99.90;;;;;;5006288;28;20495;-76
2022/01/09 10:13:17;;;;;;;9.68;3.28;;;5.50;99.90;;;;;;4974655;28;20041;-76
2022/01/09 10:15:49;;;;;;;15.25;7.63;;;5.60;99.90;;;;;;4991162;28;20042;-76
2022/01/09 10:18:37;;;;;;;17.10;10.55;;;5.70;99.90;;;;;;4974345;28;20049;-75
2022/01/09 10:21:25;;;;;;;7.03;1.88;;;6.40;99.90;;;;;;4991685;28;20119;-75
2022/01/09 10:24:04;;;;;;;7.60;4.43;;;7.00;99.90;;;;;;4993162;28;20061;-75
2022/01/09 10:26:32;;;;;;;9.05;4.88;;;7.90;99.90;;;;;;4990962;28;20187;-76
2022/01/09 10:28:58;;;;;;;6.35;3.00;;;8.60;99.90;;;;;;4993416;28;20080;-75
2022/01/09 10:31:26;;;;;;;9.27;3.65;;;9.30;99.90;;;;;;4977023;28;20042;-76
2022/01/09 10:34:03;;;;;;;7.03;1.98;;;9.80;99.90;;;;;;4976811;28;20080;-76
2022/01/09 10:36:35;;;;;;;11.43;5.00;;;10.40;99.90;;;;;;5009175;28;20042;-76
2022/01/09 10:39:11;;;;;;;10.95;3.22;;;10.80;99.90;;;;;;4992394;28;20052;-75
2022/01/09 10:41:58;;;;;;;8.32;2.78;;;11.10;99.90;;;;;;5009223;28;20394;-75
2022/01/09 10:44:33;;;;;;;11.52;2.72;;;11.20;99.90;;;;;;4993015;28;20061;-75
2022/01/09 10:47:03;;;;;;;12.73;2.20;;;11.30;99.90;;;;;;4992933;28;20384;-75
2022/01/09 10:49:41;;;;;;;8.57;2.67;;;10.90;99.90;;;;;;4992569;28;20432;-75
2022/01/09 10:52:25;;;;;;;7.43;1.65;;;10.30;99.90;;;;;;4992778;28;20053;-75
2022/01/09 10:54:52;;;;;;;11.23;2.17;;;10.00;99.90;;;;;;5025469;28;20102;-75
2022/01/09 10:57:21;;;;;;;11.50;2.20;;;9.90;99.90;;;;;;5007291;28;20038;-75
2022/01/09 10:59:49;;;;;;;10.40;2.20;;;9.90;99.90;;;;;;4992602;28;20519;-75
2022/01/09 11:02:15;;;;;;;10.68;2.22;;;9.80;99.90;;;;;;4992508;28;20045;-74
2022/01/09 11:04:43;;;;;;;15.45;6.53;;;9.70;99.90;;;;;;5009250;28;20049;-75
2022/01/09 11:07:10;;;;;;;28.13;15.77;;;9.90;99.90;;;;;;4992529;28;20038;-74
2022/01/09 11:09:38;;;;;;;13.35;3.55;;;10.10;99.90;;;;;;5008822;28;20041;-75
2022/01/09 11:12:07;;;;;;;13.65;3.00;;;10.20;99.90;;;;;;4992380;28;20056;-75
2022/01/09 11:14:36;;;;;;;18.88;3.38;;;10.10;99.90;;;;;;5025491;28;20073;-75
2022/01/09 11:17:05;;;;;;;9.20;2.42;;;10.20;99.90;;;;;;5025418;28;20124;-74
2022/01/09 11:19:32;;;;;;;10.85;3.10;;;10.50;99.90;;;;;;5025152;28;20049;-74
2022/01/09 11:22:00;;;;;;;10.52;2.40;;;10.60;99.90;;;;;;4992201;28;20057;-74
2022/01/09 11:24:54;;;;;;;11.65;2.75;;;10.90;99.90;;;;;;4992339;28;20046;-74
2022/01/09 11:27:51;;;;;;;12.30;2.90;;;11.10;99.90;;;;;;4990076;28;20038;-74
2022/01/09 11:30:21;;;;;;;14.98;3.03;;;10.70;99.90;;;;;;5025276;28;20077;-74
2022/01/09 11:33:01;;;;;;;11.52;3.95;;;10.50;99.90;;;;;;4992384;28;20049;-74
2022/01/09 11:35:46;;;;;;;15.43;3.47;;;10.60;99.90;;;;;;4975894;28;20482;-74
2022/01/09 11:38:35;;;;;;;14.55;2.80;;;10.30;99.90;;;;;;4992143;28;20058;-74
2022/01/09 11:41:18;;;;;;;12.27;2.60;;;9.60;99.90;;;;;;4975989;28;20077;-73
2022/01/09 11:43:52;;;;;;;10.38;2.67;;;9.00;99.90;;;;;;4992358;28;20371;-74
2022/01/09 11:46:18;;;;;;;11.20;2.83;;;8.60;99.90;;;;;;4975813;28;20038;-73
2022/01/09 11:49:04;;;;;;;12.60;2.40;;;8.20;99.90;;;;;;4991916;28;20114;-74
2022/01/09 11:51:35;;;;;;;9.35;2.30;;;8.30;99.90;;;;;;4975650;28;20098;-75
2022/01/09 11:54:00;;;;;;;7.75;2.03;;;8.20;99.90;;;;;;4991936;28;20080;-75
2022/01/09 11:57:06;;;;;;;9.40;1.92;;;7.90;99.90;;;;;;4989308;28;20085;-75
2022/01/09 11:59:33;;;;;;;8.55;1.42;;;7.60;99.90;;;;;;4991822;28;20079;-75
2022/01/09 12:02:29;;;;;;;7.75;1.52;;;7.50;99.90;;;;;;4975415;28;20154;-74
2022/01/09 12:04:56;;;;;;;6.75;1.30;;;7.50;99.90;;;;;;4975981;28;20042;-75
2022/01/09 12:07:34;;;;;;;9.30;2.13;;;7.50;99.90;;;;;;4991696;28;20501;-74
2022/01/09 12:10:35;;;;;;;7.40;1.52;;;7.30;99.90;;;;;;4991692;28;20046;-74
2022/01/09 12:13:01;;;;;;;;;;;7.10;99.90;;;;;;4992846;28;20041;-74
2022/01/09 12:15:42;;;;;;;9.20;1.40;;;7.00;99.90;;;;;;4991656;28;19918;-74
2022/01/09 12:18:41;;;;;;;5.63;1.75;;;6.90;99.90;;;;;;4991753;28;20142;-74
2022/01/09 12:21:08;;;;;;;9.68;1.52;;;6.80;99.90;;;;;;4991320;28;20046;-75
2022/01/09 12:23:34;;;;;;;9.07;2.08;;;6.80;99.90;;;;;;4975356;28;20057;-74
2022/01/09 12:26:00;;;;;;;6.50;2.00;;;6.90;99.90;;;;;;4988919;28;20038;-74
2022/01/09 12:28:35;;;;;;;4.75;1.63;;;7.00;99.90;;;;;;4975671;28;20094;-74
2022/01/09 12:31:02;;;;;;;7.88;1.25;;;7.10;99.90;;;;;;4975391;28;20046;-75
2022/01/09 12:33:28;;;;;;;6.00;1.23;;;7.20;99.90;;;;;;4991562;28;20598;-75
2022/01/09 12:36:03;;;;;;;6.60;2.55;;;7.30;99.90;;;;;;4975595;28;20494;-75
2022/01/09 12:38:31;;;;;;;4.53;0.90;;;7.30;99.90;;;;;;5024141;28;20052;-76
2022/01/09 12:41:02;;;;;;;6.47;1.13;;;7.30;99.90;;;;;;4975185;28;20048;-75
2022/01/09 12:43:30;;;;;;;12.75;2.08;;;7.20;99.90;;;;;;5007644;28;20049;-76
2022/01/09 12:45:56;;;;;;;6.32;1.25;;;7.00;99.90;;;;;;4975291;28;20044;-75
2022/01/09 12:48:27;;;;;;;7.20;1.38;;;6.80;99.90;;;;;;4991453;28;20435;-76
2022/01/09 12:50:55;;;;;;;6.57;1.38;;;6.60;99.90;;;;;;4975411;28;20047;-75
2022/01/09 12:53:29;;;;;;;6.85;1.23;;;6.40;99.90;;;;;;4991539;28;20459;-76